Aviation Digital Data Service (ADDS)

Output produced by METARs form (2234 UTC 27 November 2015)
found at http://www.aviationweather.gov/adds/metars/
METAR text: KCCU 272215Z AUTO 15012G18KT 10SM CLR M03/M13 A3000 RMK AO2
Conditions at: KCCU (RED CLIFF PASS , CO, US) observed 2215 UTC 27 November 2015
Temperature: -3.0°C (27°F)
Dewpoint: -13.0°C (9°F) [RH = 46%]
Pressure (altimeter): 30.00 inches Hg (1016.0 mb)
Winds: from the SSE (150 degrees) at 14 MPH (12 knots; 6.2 m/s)
gusting to 21 MPH (18 knots; 9.4 m/s)
Visibility: 10 or more miles (16+ km)
Ceiling: at least 12,000 feet AGL
Clouds: sky clear below 12,000 feet AGL
Weather: automated observation with no human augmentation;
there may or may not be significant weather present at this time